Latest Weather Observations for Albion Park

IDN60801

Issued at 11:32 am EST Wednesday 28 June 2017 (issued every 30 minutes, with the page automatically refreshed every 10 minutes)

About weather observations | Map of weather stations | Latest weather observations for NSW | Other Formats
Station Details ID: 068241 Name: WOLLONGONG AIRPORT Lat: -34.56 Lon: 150.79 Height: 8.0 m
Data from the previous 72 hours. | See also: Recent months at Albion Park
Date/Time
EST
Temp
°C
App
Temp
°C
Dew
Point
°C
Rel
Hum
%
Delta-T
°C
Wind Press
QNH
hPa
Press
MSL
hPa
Rain since
9am
mm
Dir  Spd
km/h
Gust
km/h
Spd
kts
Gust
kts
28/11:30am 16.6 15.9 8.6 59 4.1 SE 2 6 1 3 1021.8 1021.8 0.0
28/11:00am 16.3 15.0 9.9 66 3.3 ESE 7 9 4 5 1022.2 1022.2 0.0
28/10:30am 15.9 14.4 9.3 65 3.4 NE 7 9 4 5 1022.5 1022.5 0.0
28/10:00am 15.5 13.3 9.4 67 3.1 ENE 11 13 6 7 1022.5 1022.5 0.0
28/09:30am 14.1 14.5 11.1 82 1.6 CALM 0 6 0 3 1022.6 1022.6 0.0
28/09:00am 11.1 10.2 10.6 97 0.3 W 6 7 3 4 1022.4 1022.4 0.0
28/08:30am 9.8 9.8 9.7 99 0.1 CALM 0 0 0 0 1022.6 1022.6 0.0
28/08:00am 8.6 7.1 8.5 99 0.0 W 6 11 3 6 1023.0 1023.0 0.0
28/07:30am 7.1 5.3 7.0 99 0.0 WSW 6 9 3 5 1022.8 1022.8 0.0
28/07:00am 7.7 6.0 7.6 99 0.0 WSW 6 7 3 4 1022.8 1022.8 0.0
28/06:30am 7.9 7.4 7.8 99 0.0 CALM 0 6 0 3 1022.8 1022.8 0.0
28/06:00am 8.0 7.5 7.9 99 0.0 CALM 0 6 0 3 1022.3 1022.3 0.0
28/05:30am 7.9 6.0 7.6 98 0.1 W 7 9 4 5 1022.2 1022.2 0.0
28/05:00am 8.5 7.4 8.4 99 0.0 SW 4 9 2 5 1022.0 1022.0 0.0
28/04:30am 8.4 7.6 8.3 99 0.0 W 2 7 1 4 1022.9 1022.9 0.0
28/04:00am 8.1 7.6 8.0 99 0.0 CALM 0 6 0 3 1022.9 1022.9 0.0
28/03:30am 8.0 6.1 7.7 98 0.1 W 7 9 4 5 1022.9 1022.9 0.0
28/03:00am 8.9 8.2 8.6 98 0.1 W 2 6 1 3 1022.8 1022.8 0.0
28/02:30am 10.0 9.8 9.2 95 0.4 CALM 0 0 0 0 1023.1 1023.1 0.0
28/02:00am 10.0 10.0 9.7 98 0.1 CALM 0 0 0 0 1023.2 1023.2 0.0
28/01:30am 10.1 9.8 10.0 99 0.1 WSW 2 7 1 4 1023.0 1023.0 0.0
28/01:00am 9.7 8.9 9.6 99 0.0 WSW 4 7 2 4 1023.2 1023.2 0.0
28/12:30am 9.6 9.5 9.3 98 0.1 CALM 0 0 0 0 1023.5 1023.5 0.0
28/12:00am 9.9 9.1 9.8 99 0.0 W 4 7 2 4 1023.8 1023.8 0.0
 
Date/Time
EST
Temp
°C
App
Temp
°C
Dew
Point
°C
Rel
Hum
%
Delta-T
°C
Wind Press
QNH
hPa
Press
MSL
hPa
Rain since
9am
mm
Dir  Spd
km/h
Gust
km/h
Spd
kts
Gust
kts
27/11:30pm 9.5 9.4 9.4 99 0.0 CALM 0 0 0 0 1024.1 1024.1 0.0
27/11:00pm 9.1 8.8 8.5 96 0.3 CALM 0 2 0 1 1024.3 1024.3 0.0
27/10:30pm 9.5 8.9 9.0 97 0.2 W 2 7 1 4 1024.3 1024.3 0.0
27/10:00pm 9.4 7.9 9.3 99 0.0 W 7 11 4 6 1024.5 1024.5 0.0
27/09:30pm 9.3 7.7 8.8 97 0.2 W 7 7 4 4 1024.6 1024.6 0.0
27/09:00pm 9.6 9.4 9.0 96 0.3 CALM 0 4 0 2 1024.8 1024.8 0.0
27/08:30pm 9.5 8.1 8.9 96 0.3 W 6 7 3 4 1024.8 1024.8 0.0
27/08:00pm 9.7 8.1 8.8 94 0.4 W 7 11 4 6 1024.7 1024.7 0.0
27/07:30pm 10.3 8.4 9.1 92 0.6 W 9 11 5 6 1024.7 1024.7 0.0
27/07:00pm 10.0 7.7 9.1 94 0.4 W 11 13 6 7 1024.7 1024.7 0.0
27/06:30pm 10.1 7.8 9.0 93 0.5 W 11 15 6 8 1024.7 1024.7 0.0
27/06:00pm 10.7 8.9 9.3 91 0.7 WSW 9 11 5 6 1024.3 1024.3 0.0
27/05:30pm 11.6 10.4 9.5 87 1.1 SSW 6 6 3 3 1024.2 1024.2 0.0
27/05:00pm 12.6 11.9 10.1 85 1.3 SSW 4 6 2 3 1024.3 1024.3 0.0
27/04:30pm 13.4 13.5 10.2 81 1.7 CALM 0 4 0 2 1024.1 1024.1 0.0
27/04:00pm 14.2 13.2 10.4 78 2.0 ESE 6 7 3 4 1024.3 1024.3 0.0
27/03:30pm 15.1 13.6 9.2 68 3.0 E 7 9 4 5 1024.3 1024.3 0.0
27/03:00pm 15.8 14.2 8.8 63 3.6 ENE 7 11 4 6 1024.3 1024.3 0.0
27/02:30pm 15.8 15.4 8.1 60 3.9 CALM 0 0 0 0 1024.6 1024.6 0.0
27/02:00pm 15.9 14.8 8.6 62 3.7 SE 4 7 2 4 1024.7 1024.7 0.0
27/01:30pm 15.6 13.6 8.6 63 3.6 E 9 13 5 7 1025.0 1025.0 0.0
27/01:00pm 16.0 14.5 9.0 63 3.6 SSE 7 11 4 6 1025.1 1025.1 0.0
27/12:30pm 16.0 14.0 8.7 62 3.7 S 9 13 5 7 1025.5 1025.5 0.0
27/12:00pm 15.7 13.6 8.4 62 3.7 ESE 9 13 5 7 1025.8 1025.8 0.0
27/11:30am 15.8 13.6 9.2 65 3.4 SE 11 15 6 8 1026.0 1026.0 0.0
27/11:00am 16.2 14.3 8.9 62 3.7 SSE 9 15 5 8 1026.8 1026.8 0.0
27/10:30am 15.9 14.5 8.9 63 3.6 WSW 6 9 3 5 1027.0 1027.0 0.0
27/10:00am 15.4 14.1 9.1 66 3.2 NW 6 9 3 5 1027.2 1027.2 0.0
27/09:30am 13.0 12.7 10.2 83 1.4 WSW 2 9 1 5 1027.1 1027.1 0.0
27/09:00am 10.8 9.2 8.9 88 0.9 WSW 7 9 4 5 1026.8 1026.8 0.0
27/08:30am 8.8 8.3 8.0 95 0.4 CALM 0 0 0 0 1026.6 1026.6 0.0
27/08:00am 6.4 4.2 6.3 99 0.0 WSW 7 11 4 6 1026.7 1026.7 0.0
27/07:30am 4.6 3.0 4.5 99 0.0 WSW 2 7 1 4 1026.6 1026.6 0.0
27/07:00am 5.2 2.8 5.1 99 0.0 WSW 7 11 4 6 1026.4 1026.4 0.0
27/06:30am 4.7 2.2 4.6 99 0.0 WSW 7 9 4 5 1026.2 1026.2 0.0
27/06:00am 4.5 2.1 4.4 99 0.0 WSW 6 7 3 4 1026.1 1026.1 0.0
27/05:30am 4.7 3.1 4.4 98 0.1 WSW 2 7 1 4 1025.8 1025.8 0.0
27/05:00am 4.8 2.4 4.5 98 0.1 WSW 6 15 3 8 1025.7 1025.7 0.0
27/04:30am 4.2 1.2 3.9 98 0.1 W 9 13 5 7 1025.5 1025.5 0.0
27/04:00am 4.1 2.8 4.0 99 0.0 CALM 0 0 0 0 1025.4 1025.4 0.0
27/03:30am 4.4 1.8 4.1 98 0.1 WSW 7 11 4 6 1025.4 1025.4 0.0
27/03:00am 4.0 0.9 3.4 96 0.2 WSW 9 13 5 7 1025.3 1025.3 0.0
27/02:30am 4.9 2.0 4.6 98 0.1 WSW 9 9 5 5 1025.5 1025.5 0.0
27/02:00am 5.2 2.7 4.6 96 0.3 WNW 7 9 4 5 1025.6 1025.6 0.0
27/01:30am 5.0 2.1 4.7 98 0.1 SW 9 11 5 6 1025.2 1025.2 0.0
27/01:00am 4.6 2.1 3.9 95 0.3 SW 6 7 3 4 1025.2 1025.2 0.0
27/12:30am 4.8 1.7 3.8 93 0.4 SW 9 11 5 6 1025.4 1025.4 0.0
27/12:00am 5.3 3.3 4.4 94 0.4 SW 4 7 2 4 1025.3 1025.3 0.0
 
Date/Time
EST
Temp
°C
App
Temp
°C
Dew
Point
°C
Rel
Hum
%
Delta-T
°C
Wind Press
QNH
hPa
Press
MSL
hPa
Rain since
9am
mm
Dir  Spd
km/h
Gust
km/h
Spd
kts
Gust
kts
26/11:30pm 5.7 3.2 4.8 94 0.4 SW 7 9 4 5 1025.5 1025.5 0.0
26/11:00pm 5.4 3.0 4.4 93 0.4 SW 6 7 3 4 1025.7 1025.7 0.0
26/10:30pm 5.4 2.8 4.1 91 0.6 SW 7 9 4 5 1025.5 1025.5 0.0
26/10:00pm 6.3 3.8 4.9 91 0.6 SW 7 11 4 6 1025.3 1025.3 0.0
26/09:30pm 7.7 5.3 5.3 85 1.1 W 7 11 4 6 1025.2 1025.2 0.0
26/09:00pm 9.0 6.1 6.3 83 1.2 WSW 11 13 6 7 1025.0 1025.0 0.0
26/08:30pm 9.3 7.3 7.3 87 0.9 WSW 7 9 4 5 1025.0 1025.0 0.0
26/08:00pm 9.8 8.1 7.6 86 1.0 WSW 6 7 3 4 1024.8 1024.8 0.0
26/07:30pm 10.1 7.5 7.9 86 1.1 WSW 11 13 6 7 1024.6 1024.6 0.0
26/07:00pm 9.9 7.6 7.3 84 1.2 WSW 9 13 5 7 1024.2 1024.2 0.0
26/06:30pm 10.3 7.7 7.7 84 1.2 W 11 13 6 7 1023.7 1023.7 0.0
26/06:00pm 10.5 7.8 7.2 80 1.6 WSW 11 13 6 7 1023.3 1023.3 0.0
26/05:30pm 11.8 9.6 7.7 76 2.0 W 9 11 5 6 1022.9 1022.9 0.0
26/05:00pm 13.0 10.6 6.8 66 3.0 WNW 9 11 5 6 1022.5 1022.5 0.0
26/04:30pm 15.4 13.1 5.6 52 4.7 SE 7 13 4 7 1022.2 1022.2 0.0
26/04:00pm 16.1 12.7 5.7 50 5.0 ESE 13 19 7 10 1021.9 1021.9 0.0
26/03:30pm 16.6 13.1 5.6 48 5.3 ESE 13 17 7 9 1021.7 1021.7 0.0
26/03:00pm 17.7 15.7 4.3 41 6.3 SSW 4 7 2 4 1021.5 1021.5 0.0
26/02:30pm 18.2 15.1 3.7 38 6.8 E 9 13 5 7 1021.2 1021.2 0.0
26/02:00pm 17.8 14.6 3.3 38 6.7 S 9 15 5 8 1021.1 1021.1 0.0
26/01:30pm 17.7 14.7 2.1 35 7.1 ENE 7 11 4 6 1021.1 1021.1 0.0
26/01:00pm 17.9 15.1 2.2 35 7.1 SW 6 9 3 5 1021.2 1021.2 0.0
26/12:30pm 17.5 13.6 1.1 33 7.2 W 11 17 6 9 1021.3 1021.3 0.0
26/12:00pm 17.1 12.6 2.3 37 6.7 WSW 15 20 8 11 1021.5 1021.5 0.0
26/11:30am 17.2 12.6 3.8 41 6.2 WSW 17 20 9 11 1021.7 1021.7 0.0
26/11:00am 16.8 12.5 5.1 46 5.6 WSW 17 20 9 11 1022.0 1022.0 0.0
26/10:30am 16.6 13.1 5.6 48 5.3 W 13 20 7 11 1022.2 1022.2 0.0
26/10:00am 15.7 11.4 5.3 50 4.9 W 17 24 9 13 1022.1 1022.1 0.0
26/09:30am 14.9 10.0 5.1 52 4.6 WSW 20 26 11 14 1021.8 1021.8 0.0
26/09:00am 14.1 8.8 4.9 54 4.3 WSW 22 32 12 17 1021.5 1021.5 0.0
26/08:30am 13.0 6.2 5.2 59 3.6 WSW 30 37 16 20 1021.0 1021.0 0.0
26/08:00am 12.2 5.0 4.9 61 3.3 WSW 32 39 17 21 1020.6 1020.6 0.0
26/07:30am 11.6 4.2 4.8 63 3.1 W 33 43 18 23 1020.2 1020.2 0.0
26/07:00am 11.3 4.4 4.5 63 3.1 W 30 35 16 19 1019.9 1019.9 0.0
26/06:30am 11.5 4.5 4.3 61 3.2 W 30 39 16 21 1019.7 1019.7 0.0
26/06:00am 11.0 4.8 4.5 64 2.9 WNW 26 32 14 17 1019.2 1019.2 0.0
26/05:30am 10.7 5.0 4.8 67 2.7 WNW 24 30 13 16 1018.9 1018.9 0.0
26/05:00am 11.0 5.2 4.2 63 3.0 WNW 24 30 13 16 1018.6 1018.6 0.0
26/04:30am 11.4 4.8 4.2 61 3.2 W 28 35 15 19 1018.3 1018.3 0.0
26/04:00am 11.5 4.5 4.0 60 3.3 W 30 39 16 21 1017.9 1017.9 0.0
26/03:30am 11.8 6.8 3.6 57 3.6 WNW 19 30 10 16 1017.8 1017.8 0.0
26/03:00am 12.1 5.8 3.6 56 3.8 WSW 26 39 14 21 1017.5 1017.5 0.0
26/02:30am 12.9 4.9 3.6 53 4.2 WSW 35 46 19 25 1017.2 1017.2 0.0
26/02:14am 12.7 4.7 3.9 55 4.0 WSW 35 54 19 29 1017.0 1017.0 0.0
26/02:00am 12.8 4.1 4.3 56 3.9 WSW 39 50 21 27 1017.0 1017.0 0.0
26/01:33am 12.6 4.4 4.8 59 3.6 WSW 37 56 20 30 1016.9 1016.9 0.0
26/01:30am 12.8 4.3 5.0 59 3.6 WSW 39 56 21 30 1016.8 1016.8 0.0
26/01:05am 12.6 4.5 5.3 61 3.4 WSW 37 56 20 30 1016.9 1016.9 0.0
26/01:00am 12.5 4.4 5.4 62 3.3 W 37 50 20 27 1017.0 1017.0 0.0
26/12:30am 12.5 6.1 5.4 62 3.3 W 28 46 15 25 1017.4 1017.4 0.0
26/12:29am 12.3 6.0 5.5 63 3.2 W 28 39 15 21 1017.5 1017.5 0.0
26/12:00am 11.8 8.9 4.8 62 3.2 WNW 9 17 5 9 1018.1 1018.1 0.0
 
Date/Time
EST
Temp
°C
App
Temp
°C
Dew
Point
°C
Rel
Hum
%
Delta-T
°C
Wind Press
QNH
hPa
Press
MSL
hPa
Rain since
9am
mm
Dir  Spd
km/h
Gust
km/h
Spd
kts
Gust
kts
25/11:30pm 11.4 8.9 4.6 63 3.1 SW 7 17 4 9 1018.2 1018.2 0.0
25/11:00pm 10.5 7.6 4.9 68 2.5 NNE 9 17 5 9 1018.3 1018.3 0.0
25/10:30pm 10.5 6.6 5.5 71 2.3 NNW 15 19 8 10 1018.3 1018.3 0.0
25/10:00pm 9.7 6.3 5.7 76 1.8 NW 13 17 7 9 1018.4 1018.4 0.0
25/09:30pm 7.7 4.7 4.1 78 1.6 NW 9 13 5 7 1018.2 1018.2 0.0
25/09:00pm 10.0 7.8 5.2 72 2.2 NNW 6 11 3 6 1017.9 1017.9 0.0
25/08:30pm 9.0 7.0 4.2 72 2.1 NNE 4 7 2 4 1017.9 1017.9 0.0
25/08:00pm 11.3 8.8 5.0 65 2.9 N 7 11 4 6 1017.7 1017.7 0.0
25/07:30pm 11.3 8.4 4.7 64 3.0 N 9 13 5 7 1017.7 1017.7 0.0
25/07:00pm 11.0 9.4 4.7 65 2.8 W 2 7 1 4 1017.2 1017.2 0.0
25/06:30pm 13.5 9.9 5.2 57 3.9 W 13 24 7 13 1016.9 1016.9 0.0
25/06:00pm 13.4 9.3 4.6 55 4.0 W 15 22 8 12 1016.6 1016.6 0.0
25/05:30pm 13.4 9.8 4.8 56 4.0 NW 13 17 7 9 1016.2 1016.2 0.0
25/05:00pm 14.5 9.1 4.5 51 4.6 W 22 32 12 17 1016.0 1016.0 0.0
25/04:30pm 15.5 10.4 4.3 47 5.2 W 20 28 11 15 1015.6 1015.6 0.0
25/04:00pm 16.5 9.5 4.2 44 5.7 W 30 41 16 22 1015.2 1015.2 0.0
25/03:30pm 17.5 11.9 3.4 39 6.5 W 22 39 12 21 1015.0 1015.0 0.0
25/03:00pm 17.6 10.9 3.5 39 6.5 WSW 28 41 15 22 1014.9 1014.9 0.0
25/02:34pm 17.7 11.0 3.6 39 6.6 WSW 28 50 15 27 1014.6 1014.6 0.0
25/02:30pm 17.8 11.8 3.3 38 6.7 SW 24 50 13 27 1014.7 1014.7 0.0
25/02:23pm 17.9 12.8 3.0 37 6.9 WSW 19 50 10 27 1014.6 1014.6 0.0
25/02:00pm 17.9 12.7 2.2 35 7.1 W 19 35 10 19 1014.8 1014.8 0.0
25/01:30pm 17.3 11.4 1.7 35 7.0 WSW 22 37 12 20 1014.9 1014.9 0.0
25/01:00pm 17.0 10.0 2.2 37 6.7 SW 28 46 15 25 1015.3 1015.3 0.0
25/12:59pm 17.0 10.0 2.2 37 6.7 SW 28 46 15 25 1015.3 1015.3 0.0
25/12:30pm 17.0 11.2 2.2 37 6.7 WSW 22 39 12 21 1015.5 1015.5 0.0
25/12:00pm 16.2 9.2 1.9 38 6.3 WSW 28 44 15 24 1015.8 1015.8 0.0

Other Formats:

Comma delimited format used in spreadsheet applications
http://www.bom.gov.au/fwo/IDN60801/IDN60801.95748.axf

JavaScript Object Notation format (JSON) in row-major order
http://www.bom.gov.au/fwo/IDN60801/IDN60801.95748.json